sensor_id;sensor_type;location;lat;lon;timestamp;P1;durP1;ratioP1;P2;durP2;ratioP2
63320;SDS011;49449;48.800;9.534;2022-08-02T00:01:28;1.00;;;1.00;;
63320;SDS011;49449;48.800;9.534;2022-08-02T00:03:56;0.80;;;0.80;;
63320;SDS011;49449;48.800;9.534;2022-08-02T00:06:26;0.90;;;0.90;;
63320;SDS011;49449;48.800;9.534;2022-08-02T00:08:54;1.00;;;1.00;;
63320;SDS011;49449;48.800;9.534;2022-08-02T00:11:21;1.00;;;0.90;;
63320;SDS011;49449;48.800;9.534;2022-08-02T00:13:49;0.90;;;0.90;;
63320;SDS011;49449;48.800;9.534;2022-08-02T00:16:20;1.08;;;1.08;;
63320;SDS011;49449;48.800;9.534;2022-08-02T00:18:48;1.60;;;1.20;;
63320;SDS011;49449;48.800;9.534;2022-08-02T00:21:16;0.80;;;0.80;;
63320;SDS011;49449;48.800;9.534;2022-08-02T00:23:45;1.17;;;1.08;;
63320;SDS011;49449;48.800;9.534;2022-08-02T00:26:13;1.00;;;1.00;;
63320;SDS011;49449;48.800;9.534;2022-08-02T00:28:41;1.50;;;1.20;;
63320;SDS011;49449;48.800;9.534;2022-08-02T00:31:08;1.10;;;1.10;;
63320;SDS011;49449;48.800;9.534;2022-08-02T00:33:38;1.10;;;1.10;;
63320;SDS011;49449;48.800;9.534;2022-08-02T00:36:06;1.00;;;1.00;;
63320;SDS011;49449;48.800;9.534;2022-08-02T00:38:34;0.88;;;0.88;;
63320;SDS011;49449;48.800;9.534;2022-08-02T00:41:03;1.48;;;0.90;;
63320;SDS011;49449;48.800;9.534;2022-08-02T00:43:38;0.85;;;0.57;;
63320;SDS011;49449;48.800;9.534;2022-08-02T00:46:06;1.13;;;1.13;;
63320;SDS011;49449;48.800;9.534;2022-08-02T00:48:34;1.20;;;1.20;;
63320;SDS011;49449;48.800;9.534;2022-08-02T00:51:02;1.20;;;1.20;;
63320;SDS011;49449;48.800;9.534;2022-08-02T00:53:31;1.10;;;1.10;;
63320;SDS011;49449;48.800;9.534;2022-08-02T00:55:59;1.38;;;1.30;;
63320;SDS011;49449;48.800;9.534;2022-08-02T00:58:29;1.30;;;1.30;;
63320;SDS011;49449;48.800;9.534;2022-08-02T01:00:57;1.10;;;1.10;;
63320;SDS011;49449;48.800;9.534;2022-08-02T01:03:27;1.30;;;1.10;;
63320;SDS011;49449;48.800;9.534;2022-08-02T01:05:54;1.13;;;1.00;;
63320;SDS011;49449;48.800;9.534;2022-08-02T01:08:36;1.08;;;1.08;;
63320;SDS011;49449;48.800;9.534;2022-08-02T01:11:04;1.33;;;1.23;;
63320;SDS011;49449;48.800;9.534;2022-08-02T01:13:33;1.23;;;0.95;;
63320;SDS011;49449;48.800;9.534;2022-08-02T01:16:03;1.17;;;0.80;;
63320;SDS011;49449;48.800;9.534;2022-08-02T01:18:39;1.20;;;1.20;;
63320;SDS011;49449;48.800;9.534;2022-08-02T01:24:13;2.47;;;1.30;;
63320;SDS011;49449;48.800;9.534;2022-08-02T01:26:48;1.23;;;1.23;;
63320;SDS011;49449;48.800;9.534;2022-08-02T01:29:21;1.20;;;1.20;;
63320;SDS011;49449;48.800;9.534;2022-08-02T01:31:53;1.80;;;1.08;;
63320;SDS011;49449;48.800;9.534;2022-08-02T01:34:27;1.15;;;1.00;;
63320;SDS011;49449;48.800;9.534;2022-08-02T01:37:01;1.00;;;1.00;;
63320;SDS011;49449;48.800;9.534;2022-08-02T01:39:33;0.82;;;0.82;;
63320;SDS011;49449;48.800;9.534;2022-08-02T01:42:04;1.50;;;1.33;;
63320;SDS011;49449;48.800;9.534;2022-08-02T01:44:35;1.00;;;1.00;;
63320;SDS011;49449;48.800;9.534;2022-08-02T01:47:06;1.33;;;1.10;;
63320;SDS011;49449;48.800;9.534;2022-08-02T01:49:38;1.13;;;1.08;;
63320;SDS011;49449;48.800;9.534;2022-08-02T01:52:11;1.33;;;1.23;;
63320;SDS011;49449;48.800;9.534;2022-08-02T01:54:48;1.33;;;1.23;;
63320;SDS011;49449;48.800;9.534;2022-08-02T01:57:19;1.42;;;1.33;;
63320;SDS011;49449;48.800;9.534;2022-08-02T01:59:50;1.20;;;1.10;;
63320;SDS011;49449;48.800;9.534;2022-08-02T02:02:19;0.85;;;0.85;;
63320;SDS011;49449;48.800;9.534;2022-08-02T02:04:50;2.28;;;1.50;;
63320;SDS011;49449;48.800;9.534;2022-08-02T02:07:20;1.05;;;1.02;;
63320;SDS011;49449;48.800;9.534;2022-08-02T02:09:50;1.45;;;1.35;;
63320;SDS011;49449;48.800;9.534;2022-08-02T02:12:20;1.33;;;1.30;;
63320;SDS011;49449;48.800;9.534;2022-08-02T02:14:51;1.35;;;1.10;;
63320;SDS011;49449;48.800;9.534;2022-08-02T02:17:22;0.90;;;0.77;;
63320;SDS011;49449;48.800;9.534;2022-08-02T02:19:53;1.13;;;1.13;;
63320;SDS011;49449;48.800;9.534;2022-08-02T02:22:24;1.27;;;1.17;;
63320;SDS011;49449;48.800;9.534;2022-08-02T02:24:52;1.45;;;1.35;;
63320;SDS011;49449;48.800;9.534;2022-08-02T02:27:20;1.50;;;1.40;;
63320;SDS011;49449;48.800;9.534;2022-08-02T02:29:51;1.10;;;1.10;;
63320;SDS011;49449;48.800;9.534;2022-08-02T02:32:20;1.60;;;1.10;;
63320;SDS011;49449;48.800;9.534;2022-08-02T02:37:21;1.60;;;1.45;;
63320;SDS011;49449;48.800;9.534;2022-08-02T02:39:51;1.25;;;1.20;;
63320;SDS011;49449;48.800;9.534;2022-08-02T02:42:23;2.28;;;1.00;;
63320;SDS011;49449;48.800;9.534;2022-08-02T02:44:56;1.05;;;0.98;;
63320;SDS011;49449;48.800;9.534;2022-08-02T02:47:26;1.33;;;1.23;;
63320;SDS011;49449;48.800;9.534;2022-08-02T02:49:56;2.30;;;1.25;;
63320;SDS011;49449;48.800;9.534;2022-08-02T02:52:24;1.40;;;1.30;;
63320;SDS011;49449;48.800;9.534;2022-08-02T02:54:53;1.80;;;1.17;;
63320;SDS011;49449;48.800;9.534;2022-08-02T02:57:23;1.40;;;1.40;;
63320;SDS011;49449;48.800;9.534;2022-08-02T02:59:51;1.58;;;1.30;;
63320;SDS011;49449;48.800;9.534;2022-08-02T03:02:21;1.25;;;1.17;;
63320;SDS011;49449;48.800;9.534;2022-08-02T03:04:49;1.63;;;1.52;;
63320;SDS011;49449;48.800;9.534;2022-08-02T03:07:18;1.25;;;1.23;;
63320;SDS011;49449;48.800;9.534;2022-08-02T03:09:46;1.60;;;1.50;;
63320;SDS011;49449;48.800;9.534;2022-08-02T03:12:14;1.75;;;1.65;;
63320;SDS011;49449;48.800;9.534;2022-08-02T03:14:45;1.73;;;1.63;;
63320;SDS011;49449;48.800;9.534;2022-08-02T03:17:13;1.38;;;1.27;;
63320;SDS011;49449;48.800;9.534;2022-08-02T03:19:43;1.60;;;1.50;;
63320;SDS011;49449;48.800;9.534;2022-08-02T03:22:11;1.40;;;1.30;;
63320;SDS011;49449;48.800;9.534;2022-08-02T03:24:39;1.17;;;1.08;;
63320;SDS011;49449;48.800;9.534;2022-08-02T03:27:07;1.67;;;1.50;;
63320;SDS011;49449;48.800;9.534;2022-08-02T03:29:34;1.88;;;1.77;;
63320;SDS011;49449;48.800;9.534;2022-08-02T03:32:02;1.73;;;1.63;;
63320;SDS011;49449;48.800;9.534;2022-08-02T03:34:31;2.10;;;1.65;;
63320;SDS011;49449;48.800;9.534;2022-08-02T03:37:00;3.88;;;1.45;;
63320;SDS011;49449;48.800;9.534;2022-08-02T03:39:28;1.30;;;1.20;;
63320;SDS011;49449;48.800;9.534;2022-08-02T03:41:58;1.48;;;1.30;;
63320;SDS011;49449;48.800;9.534;2022-08-02T03:44:27;1.75;;;1.52;;
63320;SDS011;49449;48.800;9.534;2022-08-02T03:46:57;1.52;;;1.40;;
63320;SDS011;49449;48.800;9.534;2022-08-02T03:49:26;1.50;;;1.40;;
63320;SDS011;49449;48.800;9.534;2022-08-02T03:51:57;2.10;;;1.73;;
63320;SDS011;49449;48.800;9.534;2022-08-02T03:54:27;1.63;;;1.52;;
63320;SDS011;49449;48.800;9.534;2022-08-02T03:56:57;1.02;;;1.02;;
63320;SDS011;49449;48.800;9.534;2022-08-02T03:59:25;1.40;;;1.30;;
63320;SDS011;49449;48.800;9.534;2022-08-02T04:01:53;1.90;;;1.60;;
63320;SDS011;49449;48.800;9.534;2022-08-02T04:04:21;1.73;;;1.60;;
63320;SDS011;49449;48.800;9.534;2022-08-02T04:06:49;1.45;;;1.40;;
63320;SDS011;49449;48.800;9.534;2022-08-02T04:09:16;3.08;;;1.80;;
63320;SDS011;49449;48.800;9.534;2022-08-02T04:11:45;1.80;;;1.25;;
63320;SDS011;49449;48.800;9.534;2022-08-02T04:14:13;1.65;;;1.23;;
63320;SDS011;49449;48.800;9.534;2022-08-02T04:16:42;1.40;;;1.40;;
63320;SDS011;49449;48.800;9.534;2022-08-02T04:21:42;1.98;;;1.50;;
63320;SDS011;49449;48.800;9.534;2022-08-02T04:24:12;1.40;;;1.30;;
63320;SDS011;49449;48.800;9.534;2022-08-02T04:26:43;1.48;;;1.30;;
63320;SDS011;49449;48.800;9.534;2022-08-02T04:29:12;2.35;;;1.83;;
63320;SDS011;49449;48.800;9.534;2022-08-02T04:31:41;1.67;;;1.58;;
63320;SDS011;49449;48.800;9.534;2022-08-02T04:34:09;1.55;;;1.45;;
63320;SDS011;49449;48.800;9.534;2022-08-02T04:36:39;1.88;;;1.52;;
63320;SDS011;49449;48.800;9.534;2022-08-02T04:39:08;2.03;;;1.65;;
63320;SDS011;49449;48.800;9.534;2022-08-02T04:41:36;1.58;;;1.48;;
63320;SDS011;49449;48.800;9.534;2022-08-02T04:44:05;1.98;;;1.70;;
63320;SDS011;49449;48.800;9.534;2022-08-02T04:46:34;1.52;;;1.42;;
63320;SDS011;49449;48.800;9.534;2022-08-02T04:49:02;2.20;;;2.00;;
63320;SDS011;49449;48.800;9.534;2022-08-02T04:51:32;1.52;;;1.40;;
63320;SDS011;49449;48.800;9.534;2022-08-02T04:54:01;4.40;;;2.10;;
63320;SDS011;49449;48.800;9.534;2022-08-02T04:56:29;2.00;;;1.80;;
63320;SDS011;49449;48.800;9.534;2022-08-02T04:58:56;1.88;;;1.60;;
63320;SDS011;49449;48.800;9.534;2022-08-02T05:01:24;1.80;;;1.55;;
63320;SDS011;49449;48.800;9.534;2022-08-02T05:03:54;2.47;;;1.58;;
63320;SDS011;49449;48.800;9.534;2022-08-02T05:06:22;3.15;;;1.90;;
63320;SDS011;49449;48.800;9.534;2022-08-02T05:08:49;1.55;;;1.45;;
63320;SDS011;49449;48.800;9.534;2022-08-02T05:11:18;2.15;;;1.95;;
63320;SDS011;49449;48.800;9.534;2022-08-02T05:13:46;2.03;;;1.88;;
63320;SDS011;49449;48.800;9.534;2022-08-02T05:16:14;2.15;;;1.70;;
63320;SDS011;49449;48.800;9.534;2022-08-02T05:18:43;2.55;;;1.83;;
63320;SDS011;49449;48.800;9.534;2022-08-02T05:21:12;2.83;;;1.98;;
63320;SDS011;49449;48.800;9.534;2022-08-02T05:23:40;1.80;;;1.70;;
63320;SDS011;49449;48.800;9.534;2022-08-02T05:26:08;1.58;;;1.45;;
63320;SDS011;49449;48.800;9.534;2022-08-02T05:28:36;1.77;;;1.67;;
63320;SDS011;49449;48.800;9.534;2022-08-02T05:31:04;1.80;;;1.70;;
63320;SDS011;49449;48.800;9.534;2022-08-02T05:33:31;1.77;;;1.67;;
63320;SDS011;49449;48.800;9.534;2022-08-02T05:35:59;1.90;;;1.70;;
63320;SDS011;49449;48.800;9.534;2022-08-02T05:38:28;2.38;;;2.03;;
63320;SDS011;49449;48.800;9.534;2022-08-02T05:40:57;2.25;;;1.98;;
63320;SDS011;49449;48.800;9.534;2022-08-02T05:43:25;1.95;;;1.73;;
63320;SDS011;49449;48.800;9.534;2022-08-02T05:45:53;2.00;;;1.80;;
63320;SDS011;49449;48.800;9.534;2022-08-02T05:48:21;2.60;;;1.90;;
63320;SDS011;49449;48.800;9.534;2022-08-02T05:50:52;1.85;;;1.70;;
63320;SDS011;49449;48.800;9.534;2022-08-02T05:53:23;2.15;;;1.95;;
63320;SDS011;49449;48.800;9.534;2022-08-02T05:56:05;1.92;;;1.83;;
63320;SDS011;49449;48.800;9.534;2022-08-02T05:58:43;5.05;;;1.90;;
63320;SDS011;49449;48.800;9.534;2022-08-02T06:01:21;1.85;;;1.75;;
63320;SDS011;49449;48.800;9.534;2022-08-02T06:03:59;2.13;;;1.92;;
63320;SDS011;49449;48.800;9.534;2022-08-02T06:06:31;2.10;;;2.00;;
63320;SDS011;49449;48.800;9.534;2022-08-02T06:09:03;1.98;;;1.55;;
63320;SDS011;49449;48.800;9.534;2022-08-02T06:11:41;2.72;;;1.60;;
63320;SDS011;49449;48.800;9.534;2022-08-02T06:14:13;4.70;;;1.80;;
63320;SDS011;49449;48.800;9.534;2022-08-02T06:16:42;2.72;;;1.60;;
63320;SDS011;49449;48.800;9.534;2022-08-02T06:19:11;2.40;;;2.10;;
63320;SDS011;49449;48.800;9.534;2022-08-02T06:21:41;1.80;;;1.70;;
63320;SDS011;49449;48.800;9.534;2022-08-02T06:24:12;2.25;;;1.48;;
63320;SDS011;49449;48.800;9.534;2022-08-02T06:26:44;2.17;;;1.92;;
63320;SDS011;49449;48.800;9.534;2022-08-02T06:29:18;2.25;;;1.67;;
63320;SDS011;49449;48.800;9.534;2022-08-02T06:31:47;2.15;;;1.77;;
63320;SDS011;49449;48.800;9.534;2022-08-02T06:34:18;1.80;;;1.70;;
63320;SDS011;49449;48.800;9.534;2022-08-02T06:36:48;2.50;;;1.88;;
63320;SDS011;49449;48.800;9.534;2022-08-02T06:39:26;1.88;;;1.77;;
63320;SDS011;49449;48.800;9.534;2022-08-02T06:42:01;1.80;;;1.67;;
63320;SDS011;49449;48.800;9.534;2022-08-02T06:44:34;1.95;;;1.75;;
63320;SDS011;49449;48.800;9.534;2022-08-02T06:47:11;2.25;;;2.10;;
63320;SDS011;49449;48.800;9.534;2022-08-02T06:49:40;2.13;;;2.03;;
63320;SDS011;49449;48.800;9.534;2022-08-02T06:52:08;1.83;;;1.50;;
63320;SDS011;49449;48.800;9.534;2022-08-02T06:54:38;2.08;;;1.98;;
63320;SDS011;49449;48.800;9.534;2022-08-02T06:57:08;2.30;;;2.20;;
63320;SDS011;49449;48.800;9.534;2022-08-02T06:59:36;2.35;;;2.15;;
63320;SDS011;49449;48.800;9.534;2022-08-02T07:02:05;3.42;;;2.33;;
63320;SDS011;49449;48.800;9.534;2022-08-02T07:04:35;3.03;;;2.70;;
63320;SDS011;49449;48.800;9.534;2022-08-02T07:07:04;2.47;;;2.28;;
63320;SDS011;49449;48.800;9.534;2022-08-02T07:09:33;3.28;;;3.00;;
63320;SDS011;49449;48.800;9.534;2022-08-02T07:12:03;2.88;;;2.67;;
63320;SDS011;49449;48.800;9.534;2022-08-02T07:17:00;3.78;;;3.05;;
63320;SDS011;49449;48.800;9.534;2022-08-02T07:19:29;3.45;;;2.58;;
63320;SDS011;49449;48.800;9.534;2022-08-02T07:21:57;3.10;;;2.70;;
63320;SDS011;49449;48.800;9.534;2022-08-02T07:24:26;2.97;;;2.72;;
63320;SDS011;49449;48.800;9.534;2022-08-02T07:26:54;4.85;;;3.65;;
63320;SDS011;49449;48.800;9.534;2022-08-02T07:29:37;3.33;;;2.50;;
63320;SDS011;49449;48.800;9.534;2022-08-02T07:32:06;3.53;;;2.50;;
63320;SDS011;49449;48.800;9.534;2022-08-02T07:34:34;3.33;;;2.70;;
63320;SDS011;49449;48.800;9.534;2022-08-02T07:37:03;5.35;;;2.67;;
63320;SDS011;49449;48.800;9.534;2022-08-02T07:39:31;2.90;;;2.70;;
63320;SDS011;49449;48.800;9.534;2022-08-02T07:42:00;3.58;;;3.03;;
63320;SDS011;49449;48.800;9.534;2022-08-02T07:44:29;3.47;;;2.60;;
63320;SDS011;49449;48.800;9.534;2022-08-02T07:47:01;2.83;;;2.58;;
63320;SDS011;49449;48.800;9.534;2022-08-02T07:49:31;3.58;;;3.28;;
63320;SDS011;49449;48.800;9.534;2022-08-02T07:52:00;3.35;;;2.90;;
63320;SDS011;49449;48.800;9.534;2022-08-02T07:54:29;3.55;;;3.25;;
63320;SDS011;49449;48.800;9.534;2022-08-02T07:56:58;3.95;;;3.53;;
63320;SDS011;49449;48.800;9.534;2022-08-02T07:59:26;3.20;;;2.90;;
63320;SDS011;49449;48.800;9.534;2022-08-02T08:01:56;5.60;;;3.42;;
63320;SDS011;49449;48.800;9.534;2022-08-02T08:04:25;5.47;;;4.10;;
63320;SDS011;49449;48.800;9.534;2022-08-02T08:06:54;4.88;;;3.50;;
63320;SDS011;49449;48.800;9.534;2022-08-02T08:09:22;4.35;;;3.97;;
63320;SDS011;49449;48.800;9.534;2022-08-02T08:11:50;4.28;;;3.85;;
63320;SDS011;49449;48.800;9.534;2022-08-02T08:14:19;3.50;;;3.20;;
63320;SDS011;49449;48.800;9.534;2022-08-02T08:16:47;3.28;;;2.88;;
63320;SDS011;49449;48.800;9.534;2022-08-02T08:19:16;4.43;;;3.40;;
63320;SDS011;49449;48.800;9.534;2022-08-02T08:21:46;3.67;;;3.38;;
63320;SDS011;49449;48.800;9.534;2022-08-02T08:24:14;4.93;;;3.47;;
63320;SDS011;49449;48.800;9.534;2022-08-02T08:26:42;4.53;;;4.13;;
63320;SDS011;49449;48.800;9.534;2022-08-02T08:29:11;4.53;;;4.05;;
63320;SDS011;49449;48.800;9.534;2022-08-02T08:31:39;4.18;;;3.70;;
63320;SDS011;49449;48.800;9.534;2022-08-02T08:34:07;3.67;;;3.22;;
63320;SDS011;49449;48.800;9.534;2022-08-02T08:36:35;4.13;;;3.03;;
63320;SDS011;49449;48.800;9.534;2022-08-02T08:39:05;4.88;;;3.45;;
63320;SDS011;49449;48.800;9.534;2022-08-02T08:41:34;4.68;;;3.80;;
63320;SDS011;49449;48.800;9.534;2022-08-02T08:44:02;4.00;;;3.60;;
63320;SDS011;49449;48.800;9.534;2022-08-02T08:46:32;4.32;;;3.60;;
63320;SDS011;49449;48.800;9.534;2022-08-02T08:49:05;5.22;;;3.40;;
63320;SDS011;49449;48.800;9.534;2022-08-02T08:51:36;4.07;;;3.75;;
63320;SDS011;49449;48.800;9.534;2022-08-02T08:54:12;3.83;;;3.33;;
63320;SDS011;49449;48.800;9.534;2022-08-02T08:56:42;4.70;;;4.30;;
63320;SDS011;49449;48.800;9.534;2022-08-02T08:59:12;3.88;;;3.58;;
63320;SDS011;49449;48.800;9.534;2022-08-02T09:01:39;5.32;;;3.58;;
63320;SDS011;49449;48.800;9.534;2022-08-02T09:04:08;5.95;;;3.90;;
63320;SDS011;49449;48.800;9.534;2022-08-02T09:06:37;3.38;;;3.15;;
63320;SDS011;49449;48.800;9.534;2022-08-02T09:09:06;4.28;;;3.85;;
63320;SDS011;49449;48.800;9.534;2022-08-02T09:11:36;4.57;;;3.88;;
63320;SDS011;49449;48.800;9.534;2022-08-02T09:14:04;3.75;;;3.45;;
63320;SDS011;49449;48.800;9.534;2022-08-02T09:16:33;3.92;;;3.50;;
63320;SDS011;49449;48.800;9.534;2022-08-02T09:19:15;4.63;;;4.22;;
63320;SDS011;49449;48.800;9.534;2022-08-02T09:21:45;5.15;;;3.40;;
63320;SDS011;49449;48.800;9.534;2022-08-02T09:24:16;4.05;;;3.65;;
63320;SDS011;49449;48.800;9.534;2022-08-02T09:26:47;4.13;;;3.63;;
63320;SDS011;49449;48.800;9.534;2022-08-02T09:29:17;4.80;;;4.30;;
63320;SDS011;49449;48.800;9.534;2022-08-02T09:31:50;4.68;;;3.30;;
63320;SDS011;49449;48.800;9.534;2022-08-02T09:34:28;4.25;;;3.65;;
63320;SDS011;49449;48.800;9.534;2022-08-02T09:37:20;3.38;;;3.08;;
63320;SDS011;49449;48.800;9.534;2022-08-02T09:39:49;4.32;;;3.28;;
63320;SDS011;49449;48.800;9.534;2022-08-02T09:42:18;3.70;;;3.40;;
63320;SDS011;49449;48.800;9.534;2022-08-02T09:44:53;4.03;;;3.42;;
63320;SDS011;49449;48.800;9.534;2022-08-02T09:47:22;4.50;;;4.15;;
63320;SDS011;49449;48.800;9.534;2022-08-02T09:49:52;3.78;;;3.42;;
63320;SDS011;49449;48.800;9.534;2022-08-02T09:52:21;4.70;;;3.67;;
63320;SDS011;49449;48.800;9.534;2022-08-02T09:54:52;4.35;;;3.58;;
63320;SDS011;49449;48.800;9.534;2022-08-02T09:57:26;5.15;;;4.03;;
63320;SDS011;49449;48.800;9.534;2022-08-02T09:59:55;4.05;;;3.50;;
63320;SDS011;49449;48.800;9.534;2022-08-02T10:02:25;3.20;;;3.00;;
63320;SDS011;49449;48.800;9.534;2022-08-02T10:04:53;4.57;;;3.78;;
63320;SDS011;49449;48.800;9.534;2022-08-02T10:07:22;6.20;;;4.07;;
63320;SDS011;49449;48.800;9.534;2022-08-02T10:09:50;3.97;;;3.65;;
63320;SDS011;49449;48.800;9.534;2022-08-02T10:12:19;4.18;;;3.88;;
63320;SDS011;49449;48.800;9.534;2022-08-02T10:14:49;3.20;;;3.00;;
63320;SDS011;49449;48.800;9.534;2022-08-02T10:17:18;4.50;;;3.00;;
63320;SDS011;49449;48.800;9.534;2022-08-02T10:19:49;3.38;;;3.17;;
63320;SDS011;49449;48.800;9.534;2022-08-02T10:22:17;3.70;;;3.33;;
63320;SDS011;49449;48.800;9.534;2022-08-02T10:24:47;4.07;;;2.90;;
63320;SDS011;49449;48.800;9.534;2022-08-02T10:27:16;4.20;;;3.20;;
63320;SDS011;49449;48.800;9.534;2022-08-02T10:29:47;3.35;;;3.08;;
63320;SDS011;49449;48.800;9.534;2022-08-02T10:32:18;4.50;;;3.25;;
63320;SDS011;49449;48.800;9.534;2022-08-02T10:34:50;6.22;;;3.33;;
63320;SDS011;49449;48.800;9.534;2022-08-02T10:37:22;3.63;;;3.40;;
63320;SDS011;49449;48.800;9.534;2022-08-02T10:39:56;3.30;;;3.00;;
63320;SDS011;49449;48.800;9.534;2022-08-02T10:42:43;2.80;;;2.60;;
63320;SDS011;49449;48.800;9.534;2022-08-02T10:45:14;2.80;;;2.60;;
63320;SDS011;49449;48.800;9.534;2022-08-02T10:48:00;2.92;;;2.50;;
63320;SDS011;49449;48.800;9.534;2022-08-02T10:53:24;3.30;;;2.88;;
63320;SDS011;49449;48.800;9.534;2022-08-02T10:55:54;2.90;;;2.70;;
63320;SDS011;49449;48.800;9.534;2022-08-02T10:58:24;3.03;;;2.75;;
63320;SDS011;49449;48.800;9.534;2022-08-02T11:00:58;2.88;;;2.63;;
63320;SDS011;49449;48.800;9.534;2022-08-02T11:03:36;3.10;;;2.80;;
63320;SDS011;49449;48.800;9.534;2022-08-02T11:06:06;2.88;;;2.67;;
63320;SDS011;49449;48.800;9.534;2022-08-02T11:08:36;2.83;;;2.63;;
63320;SDS011;49449;48.800;9.534;2022-08-02T11:11:15;3.22;;;2.60;;
63320;SDS011;49449;48.800;9.534;2022-08-02T11:14:00;2.33;;;2.22;;
63320;SDS011;49449;48.800;9.534;2022-08-02T11:19:34;2.70;;;2.50;;
63320;SDS011;49449;48.800;9.534;2022-08-02T11:22:22;2.50;;;2.30;;
63320;SDS011;49449;48.800;9.534;2022-08-02T11:24:51;2.50;;;2.22;;
63320;SDS011;49449;48.800;9.534;2022-08-02T11:27:19;2.55;;;2.35;;
63320;SDS011;49449;48.800;9.534;2022-08-02T11:29:48;2.17;;;2.08;;
63320;SDS011;49449;48.800;9.534;2022-08-02T11:32:21;2.15;;;1.90;;
63320;SDS011;49449;48.800;9.534;2022-08-02T11:34:53;2.60;;;2.40;;
63320;SDS011;49449;48.800;9.534;2022-08-02T11:37:27;2.30;;;2.20;;
63320;SDS011;49449;48.800;9.534;2022-08-02T11:39:55;3.15;;;2.28;;
63320;SDS011;49449;48.800;9.534;2022-08-02T11:42:30;2.25;;;2.15;;
63320;SDS011;49449;48.800;9.534;2022-08-02T11:44:59;2.63;;;2.42;;
63320;SDS011;49449;48.800;9.534;2022-08-02T11:47:27;2.30;;;2.20;;
63320;SDS011;49449;48.800;9.534;2022-08-02T11:50:06;2.50;;;2.30;;
63320;SDS011;49449;48.800;9.534;2022-08-02T11:52:35;2.95;;;2.75;;
63320;SDS011;49449;48.800;9.534;2022-08-02T11:55:05;2.75;;;2.40;;
63320;SDS011;49449;48.800;9.534;2022-08-02T11:57:35;2.40;;;2.10;;
63320;SDS011;49449;48.800;9.534;2022-08-02T12:00:12;2.53;;;2.30;;
63320;SDS011;49449;48.800;9.534;2022-08-02T12:02:44;2.95;;;2.75;;
63320;SDS011;49449;48.800;9.534;2022-08-02T12:05:16;2.40;;;2.30;;
63320;SDS011;49449;48.800;9.534;2022-08-02T12:07:49;3.08;;;2.88;;
63320;SDS011;49449;48.800;9.534;2022-08-02T12:10:18;3.20;;;2.63;;
63320;SDS011;49449;48.800;9.534;2022-08-02T12:12:48;3.28;;;2.80;;
63320;SDS011;49449;48.800;9.534;2022-08-02T12:15:27;4.82;;;2.35;;
63320;SDS011;49449;48.800;9.534;2022-08-02T12:17:59;2.60;;;2.40;;
63320;SDS011;49449;48.800;9.534;2022-08-02T12:20:47;3.30;;;2.70;;
63320;SDS011;49449;48.800;9.534;2022-08-02T12:23:15;2.70;;;2.50;;
63320;SDS011;49449;48.800;9.534;2022-08-02T12:25:43;2.75;;;2.50;;
63320;SDS011;49449;48.800;9.534;2022-08-02T12:28:12;2.55;;;2.45;;
63320;SDS011;49449;48.800;9.534;2022-08-02T12:30:50;2.75;;;2.55;;
63320;SDS011;49449;48.800;9.534;2022-08-02T12:33:21;2.60;;;2.40;;
63320;SDS011;49449;48.800;9.534;2022-08-02T12:35:51;2.80;;;2.30;;
63320;SDS011;49449;48.800;9.534;2022-08-02T12:38:19;2.67;;;2.45;;
63320;SDS011;49449;48.800;9.534;2022-08-02T12:40:48;2.28;;;2.17;;
63320;SDS011;49449;48.800;9.534;2022-08-02T12:43:18;2.17;;;2.05;;
63320;SDS011;49449;48.800;9.534;2022-08-02T12:45:48;2.42;;;2.22;;
63320;SDS011;49449;48.800;9.534;2022-08-02T12:48:31;2.40;;;2.20;;
63320;SDS011;49449;48.800;9.534;2022-08-02T12:51:21;2.75;;;2.53;;
63320;SDS011;49449;48.800;9.534;2022-08-02T12:53:51;2.70;;;2.50;;
63320;SDS011;49449;48.800;9.534;2022-08-02T12:56:25;3.03;;;2.75;;
63320;SDS011;49449;48.800;9.534;2022-08-02T12:58:55;2.38;;;2.20;;
63320;SDS011;49449;48.800;9.534;2022-08-02T13:01:24;3.08;;;2.88;;
63320;SDS011;49449;48.800;9.534;2022-08-02T13:03:53;2.20;;;2.10;;
63320;SDS011;49449;48.800;9.534;2022-08-02T13:06:24;2.45;;;2.30;;
63320;SDS011;49449;48.800;9.534;2022-08-02T13:08:55;2.30;;;2.10;;
63320;SDS011;49449;48.800;9.534;2022-08-02T13:11:24;2.67;;;2.17;;
63320;SDS011;49449;48.800;9.534;2022-08-02T13:13:54;2.40;;;2.20;;
63320;SDS011;49449;48.800;9.534;2022-08-02T13:16:22;2.42;;;2.22;;
63320;SDS011;49449;48.800;9.534;2022-08-02T13:18:50;2.53;;;2.42;;
63320;SDS011;49449;48.800;9.534;2022-08-02T13:21:21;2.70;;;2.50;;
63320;SDS011;49449;48.800;9.534;2022-08-02T13:23:51;2.03;;;1.92;;
63320;SDS011;49449;48.800;9.534;2022-08-02T13:26:20;2.83;;;2.63;;
63320;SDS011;49449;48.800;9.534;2022-08-02T13:28:48;2.50;;;2.30;;
63320;SDS011;49449;48.800;9.534;2022-08-02T13:31:16;2.60;;;2.33;;
63320;SDS011;49449;48.800;9.534;2022-08-02T13:33:59;2.35;;;2.20;;
63320;SDS011;49449;48.800;9.534;2022-08-02T13:36:30;2.20;;;2.10;;
63320;SDS011;49449;48.800;9.534;2022-08-02T13:39:00;2.05;;;1.95;;
63320;SDS011;49449;48.800;9.534;2022-08-02T13:43:58;2.40;;;2.20;;
63320;SDS011;49449;48.800;9.534;2022-08-02T13:46:31;2.65;;;2.45;;
63320;SDS011;49449;48.800;9.534;2022-08-02T13:49:05;2.35;;;2.25;;
63320;SDS011;49449;48.800;9.534;2022-08-02T13:51:33;2.15;;;2.05;;
63320;SDS011;49449;48.800;9.534;2022-08-02T13:54:03;2.03;;;1.92;;
63320;SDS011;49449;48.800;9.534;2022-08-02T13:56:32;2.40;;;2.20;;
63320;SDS011;49449;48.800;9.534;2022-08-02T13:59:01;2.80;;;2.60;;
63320;SDS011;49449;48.800;9.534;2022-08-02T14:01:30;2.40;;;2.30;;
63320;SDS011;49449;48.800;9.534;2022-08-02T14:03:58;2.60;;;2.40;;
63320;SDS011;49449;48.800;9.534;2022-08-02T14:06:26;2.10;;;2.00;;
63320;SDS011;49449;48.800;9.534;2022-08-02T14:08:54;2.33;;;2.13;;
63320;SDS011;49449;48.800;9.534;2022-08-02T14:11:24;2.58;;;2.33;;
63320;SDS011;49449;48.800;9.534;2022-08-02T14:13:52;2.10;;;2.00;;
63320;SDS011;49449;48.800;9.534;2022-08-02T14:16:20;2.58;;;2.40;;
63320;SDS011;49449;48.800;9.534;2022-08-02T14:18:51;2.00;;;1.90;;
63320;SDS011;49449;48.800;9.534;2022-08-02T14:21:19;2.20;;;1.95;;
63320;SDS011;49449;48.800;9.534;2022-08-02T14:23:47;2.80;;;2.60;;
63320;SDS011;49449;48.800;9.534;2022-08-02T14:26:17;2.28;;;2.10;;
63320;SDS011;49449;48.800;9.534;2022-08-02T14:28:47;2.30;;;2.13;;
63320;SDS011;49449;48.800;9.534;2022-08-02T14:31:16;2.60;;;2.35;;
63320;SDS011;49449;48.800;9.534;2022-08-02T14:33:44;2.33;;;2.10;;
63320;SDS011;49449;48.800;9.534;2022-08-02T14:36:12;2.80;;;2.58;;
63320;SDS011;49449;48.800;9.534;2022-08-02T14:38:41;2.65;;;2.45;;
63320;SDS011;49449;48.800;9.534;2022-08-02T14:41:09;2.45;;;2.35;;
63320;SDS011;49449;48.800;9.534;2022-08-02T14:43:38;2.35;;;2.15;;
63320;SDS011;49449;48.800;9.534;2022-08-02T14:46:25;2.67;;;2.47;;
63320;SDS011;49449;48.800;9.534;2022-08-02T14:48:56;2.58;;;2.35;;
63320;SDS011;49449;48.800;9.534;2022-08-02T14:51:27;2.60;;;2.40;;
63320;SDS011;49449;48.800;9.534;2022-08-02T14:53:56;2.55;;;2.35;;
63320;SDS011;49449;48.800;9.534;2022-08-02T14:56:25;2.20;;;2.10;;
63320;SDS011;49449;48.800;9.534;2022-08-02T14:58:54;2.63;;;2.42;;
63320;SDS011;49449;48.800;9.534;2022-08-02T15:01:22;2.47;;;2.28;;
63320;SDS011;49449;48.800;9.534;2022-08-02T15:03:53;2.40;;;2.20;;
63320;SDS011;49449;48.800;9.534;2022-08-02T15:06:21;2.38;;;2.20;;
63320;SDS011;49449;48.800;9.534;2022-08-02T15:08:54;2.65;;;2.45;;
63320;SDS011;49449;48.800;9.534;2022-08-02T15:11:22;2.25;;;2.05;;
63320;SDS011;49449;48.800;9.534;2022-08-02T15:13:50;2.30;;;2.13;;
63320;SDS011;49449;48.800;9.534;2022-08-02T15:16:18;2.65;;;2.45;;
63320;SDS011;49449;48.800;9.534;2022-08-02T15:18:55;3.45;;;2.25;;
63320;SDS011;49449;48.800;9.534;2022-08-02T15:21:23;2.47;;;2.28;;
63320;SDS011;49449;48.800;9.534;2022-08-02T15:23:52;2.92;;;2.72;;
63320;SDS011;49449;48.800;9.534;2022-08-02T15:26:20;2.75;;;2.10;;